Time;durP1;ratioP1;P1;durP2;ratioP2;P2;SDS_P1;SDS_P2;PMS_P1;PMS_P2;Temp;Humidity;BMP_temperature;BMP_pressure;BME280_temperature;BME280_humidity;BME280_pressure;Samples;Min_cycle;Max_cycle;Signal;HPM_P1;HPM_P2
2023/06/11 00:01:46;;;;;;;;;;;;;;;19.20;55.44;101814.81;5050156;28;1062;-75
2023/06/11 00:04:19;;;;;;;;;;;;;;;19.20;55.78;101816.72;5049430;28;1967;-75
2023/06/11 00:06:46;;;;;;;;;;;;;;;19.19;55.83;101823.25;5049858;28;992;-73
2023/06/11 00:09:13;;;;;;;;;;;;;;;19.19;55.28;101821.34;5049586;28;966;-73
2023/06/11 00:11:41;;;;;;;;;;;;;;;19.16;55.67;101827.31;5053128;28;991;-75
2023/06/11 00:14:08;;;;;;;;;;;;;;;19.14;55.76;101828.63;5053983;28;1050;-74
2023/06/11 00:16:36;;;;;;;;;;;;;;;19.13;55.46;101819.59;5054116;28;999;-75
2023/06/11 00:19:03;;;;;;;;;;;;;;;19.12;55.61;101825.31;5052419;28;1042;-74
2023/06/11 00:21:30;;;;;;;;;;;;;;;19.10;55.66;101819.28;5054894;28;1062;-75
2023/06/11 00:23:56;;;;;;;;;;;;;;;19.10;55.14;101820.09;5053530;28;971;-74
2023/06/11 00:26:23;;;;;;;;;;;;;;;19.06;55.33;101818.94;5053975;28;1918;-74
2023/06/11 00:28:50;;;;;;;;;;;;;;;19.07;55.63;101817.88;5052715;28;1078;-75
2023/06/11 00:31:16;;;;;;;;;;;;;;;19.07;55.48;101823.31;5054667;28;1186;-75
2023/06/11 00:33:43;;;;;;;;;;;;;;;19.12;54.98;101828.88;5052708;28;1062;-74
2023/06/11 00:36:09;;;;;;;;;;;;;;;19.10;55.16;101830.19;5053490;28;991;-74
2023/06/11 00:38:40;;;;;;;;;;;;;;;19.08;55.24;101832.34;5052655;28;1145;-75
2023/06/11 00:41:07;;;;;;;;;;;;;;;18.99;55.09;101826.44;5053965;28;1081;-74
2023/06/11 00:43:33;;;;;;;;;;;;;;;19.01;55.38;101822.41;5052739;28;1023;-74
2023/06/11 00:46:02;;;;;;;;;;;;;;;19.01;54.99;101824.31;5053547;28;1971;-75
2023/06/11 00:48:28;;;;;;;;;;;;;;;19.08;54.88;101821.41;5052529;28;1146;-75
2023/06/11 00:50:55;;;;;;;;;;;;;;;19.09;54.64;101820.34;5053778;28;912;-75
2023/06/11 00:53:22;;;;;;;;;;;;;;;19.13;54.27;101826.97;5035005;28;1236;-75
2023/06/11 00:55:48;;;;;;;;;;;;;;;18.95;55.02;101819.84;5052639;28;1105;-75
2023/06/11 00:58:15;;;;;;;;;;;;;;;18.91;55.04;101829.56;5053307;28;1401;-74
2023/06/11 01:00:42;;;;;;;;;;;;;;;18.92;54.83;101831.25;5054383;28;1053;-75
2023/06/11 01:03:08;;;;;;;;;;;;;;;18.93;55.03;101827.44;5051943;28;1107;-74
2023/06/11 01:05:42;;;;;;;;;;;;;;;18.91;54.94;101824.94;5036108;28;2339;-73
2023/06/11 01:08:09;;;;;;;;;;;;;;;18.88;54.87;101830.06;5052577;28;1101;-74
2023/06/11 01:10:36;;;;;;;;;;;;;;;18.96;54.47;101824.22;5053788;28;1039;-74
2023/06/11 01:13:03;;;;;;;;;;;;;;;18.88;54.92;101828.16;5052279;28;959;-74
2023/06/11 01:15:29;;;;;;;;;;;;;;;18.88;54.67;101828.16;5052494;28;971;-75
2023/06/11 01:17:56;;;;;;;;;;;;;;;18.96;54.17;101832.41;5052291;28;1061;-73
2023/06/11 01:20:25;;;;;;;;;;;;;;;18.96;54.15;101832.41;5035565;28;1023;-75
2023/06/11 01:22:51;;;;;;;;;;;;;;;18.79;54.78;101840.53;5051789;28;1062;-73
2023/06/11 01:25:18;;;;;;;;;;;;;;;18.77;54.49;101839.97;5052287;28;1968;-73
2023/06/11 01:27:45;;;;;;;;;;;;;;;18.82;54.37;101846.34;5036046;28;987;-75
2023/06/11 01:30:17;;;;;;;;;;;;;;;18.67;54.59;101840.53;5034214;28;1064;-73
2023/06/11 01:32:43;;;;;;;;;;;;;;;18.77;54.63;101853.63;5053391;28;1145;-75
2023/06/11 01:35:10;;;;;;;;;;;;;;;18.76;54.48;101843.75;5052186;28;1014;-75
2023/06/11 01:37:37;;;;;;;;;;;;;;;18.66;54.35;101847.09;5052688;28;959;-75
2023/06/11 01:40:03;;;;;;;;;;;;;;;18.62;54.41;101848.66;5051462;28;1003;-75
2023/06/11 01:42:30;;;;;;;;;;;;;;;18.63;54.54;101847.56;5052152;28;1062;-73
2023/06/11 01:44:56;;;;;;;;;;;;;;;18.61;54.64;101850.53;5051462;28;1914;-75
2023/06/11 01:47:23;;;;;;;;;;;;;;;18.65;54.29;101856.34;5051343;28;1015;-75
2023/06/11 01:49:50;;;;;;;;;;;;;;;18.54;54.78;101858.03;5052628;28;994;-75
2023/06/11 01:52:17;;;;;;;;;;;;;;;18.48;54.65;101850.81;5053441;28;979;-75
2023/06/11 01:54:44;;;;;;;;;;;;;;;18.56;54.43;101864.09;5051949;28;963;-73
2023/06/11 01:57:10;;;;;;;;;;;;;;;18.55;54.71;101859.69;5051331;28;1304;-75
2023/06/11 01:59:37;;;;;;;;;;;;;;;18.52;54.63;101859.34;5050692;28;1038;-75
2023/06/11 02:02:03;;;;;;;;;;;;;;;18.45;54.72;101854.03;5052209;28;987;-74
2023/06/11 02:04:30;;;;;;;;;;;;;;;18.47;54.55;101859.22;5051504;28;1074;-75
2023/06/11 02:06:56;;;;;;;;;;;;;;;18.45;54.35;101853.19;5053205;28;1921;-74
2023/06/11 02:09:23;;;;;;;;;;;;;;;18.43;54.54;101855.34;5050806;28;963;-72
2023/06/11 02:11:49;;;;;;;;;;;;;;;18.35;54.51;101860.09;5052206;28;1133;-74
2023/06/11 02:14:16;;;;;;;;;;;;;;;18.36;54.60;101872.66;5051147;28;971;-75
2023/06/11 02:16:42;;;;;;;;;;;;;;;18.31;54.64;101861.63;5051756;28;932;-75
2023/06/11 02:19:09;;;;;;;;;;;;;;;17.97;54.42;101808.81;5051026;28;1046;-74
2023/06/11 02:21:35;;;;;;;;;;;;;;;18.30;54.51;101859.97;5051807;28;991;-73
2023/06/11 02:24:02;;;;;;;;;;;;;;;18.32;54.18;101868.75;5050982;28;971;-73
2023/06/11 02:26:28;;;;;;;;;;;;;;;18.30;54.51;101859.16;5050873;28;1910;-75
2023/06/11 02:28:55;;;;;;;;;;;;;;;18.24;54.47;101865.56;5050448;28;1026;-75
2023/06/11 02:31:22;;;;;;;;;;;;;;;18.26;54.22;101858.78;5050753;28;1164;-74
2023/06/11 02:33:48;;;;;;;;;;;;;;;17.87;54.40;101800.41;5050405;28;975;-75
2023/06/11 02:36:15;;;;;;;;;;;;;;;18.20;54.50;101867.09;5051416;28;998;-75
2023/06/11 02:38:41;;;;;;;;;;;;;;;18.19;54.18;101860.00;5050646;28;983;-75
2023/06/11 02:41:08;;;;;;;;;;;;;;;18.25;54.21;101859.88;5052097;28;1062;-73
2023/06/11 02:43:34;;;;;;;;;;;;;;;18.17;54.39;101855.59;5033568;28;1468;-73
2023/06/11 02:46:01;;;;;;;;;;;;;;;18.19;54.13;101862.72;5051295;28;1934;-74
2023/06/11 02:48:27;;;;;;;;;;;;;;;18.20;54.21;101856.19;5050935;28;1031;-75
2023/06/11 02:50:54;;;;;;;;;;;;;;;18.12;54.26;101852.78;5050612;28;1189;-74
2023/06/11 02:53:20;;;;;;;;;;;;;;;18.12;54.12;101852.78;5050717;28;1074;-75
2023/06/11 02:55:47;;;;;;;;;;;;;;;18.18;53.95;101845.53;5050909;28;1026;-74
2023/06/11 02:58:14;;;;;;;;;;;;;;;17.78;54.38;101799.13;5027113;28;1597;-73
2023/06/11 03:00:43;;;;;;;;;;;;;;;18.05;54.16;101845.78;5051098;28;1052;-75
2023/06/11 03:03:09;;;;;;;;;;;;;;;18.07;54.04;101858.09;5049654;28;1023;-75
2023/06/11 03:05:36;;;;;;;;;;;;;;;18.08;53.93;101853.47;5050459;28;1969;-74
2023/06/11 03:08:02;;;;;;;;;;;;;;;18.12;53.67;101858.22;5050223;28;1022;-75
2023/06/11 03:10:29;;;;;;;;;;;;;;;18.04;54.03;101858.59;5050362;28;1019;-75
2023/06/11 03:12:55;;;;;;;;;;;;;;;17.99;54.32;101863.09;5051516;28;1070;-74
2023/06/11 03:15:22;;;;;;;;;;;;;;;18.00;54.11;101860.13;5033724;28;1047;-74
2023/06/11 03:17:48;;;;;;;;;;;;;;;18.00;53.80;101862.88;5050385;28;1094;-74
2023/06/11 03:20:15;;;;;;;;;;;;;;;18.00;53.81;101865.59;5050287;28;999;-74
2023/06/11 03:22:42;;;;;;;;;;;;;;;18.04;53.60;101858.59;5050095;28;1011;-74
2023/06/11 03:25:08;;;;;;;;;;;;;;;18.06;53.46;101864.63;5049585;28;1901;-76
2023/06/11 03:27:35;;;;;;;;;;;;;;;17.99;53.52;101858.47;5050111;28;1003;-73
2023/06/11 03:30:02;;;;;;;;;;;;;;;17.96;53.83;101863.56;5050056;28;1019;-76
2023/06/11 03:32:28;;;;;;;;;;;;;;;17.90;53.94;101860.72;5049529;28;1350;-75
2023/06/11 03:34:55;;;;;;;;;;;;;;;17.95;53.69;101867.38;5052389;28;1094;-74
2023/06/11 03:37:21;;;;;;;;;;;;;;;17.90;53.84;101868.06;5049599;28;1106;-74
2023/06/11 03:39:48;;;;;;;;;;;;;;;17.92;53.64;101861.31;5049998;28;1002;-73
2023/06/11 03:42:15;;;;;;;;;;;;;;;17.90;53.70;101868.06;5049849;28;1022;-72
2023/06/11 03:44:41;;;;;;;;;;;;;;;17.91;53.67;101865.13;5047723;28;1101;-75
2023/06/11 03:47:08;;;;;;;;;;;;;;;17.87;53.62;101871.25;5049735;28;1985;-75
2023/06/11 03:49:34;;;;;;;;;;;;;;;17.85;53.51;101868.78;5049388;28;1006;-74
2023/06/11 03:52:01;;;;;;;;;;;;;;;17.86;53.58;101867.72;5033163;28;1034;-74
2023/06/11 03:54:28;;;;;;;;;;;;;;;17.86;53.57;101862.25;5048683;28;1010;-73
2023/06/11 03:56:54;;;;;;;;;;;;;;;17.86;53.32;101870.44;5049661;28;1498;-73
2023/06/11 03:59:21;;;;;;;;;;;;;;;17.86;53.57;101869.63;5050714;28;1063;-73
2023/06/11 04:01:47;;;;;;;;;;;;;;;17.85;53.30;101868.78;5048705;28;1014;-73
2023/06/11 04:04:14;;;;;;;;;;;;;;;17.85;53.25;101868.78;5028165;28;1181;-73
2023/06/11 04:06:42;;;;;;;;;;;;;;;17.85;53.11;101867.94;5033022;28;1977;-75
2023/06/11 04:09:08;;;;;;;;;;;;;;;17.84;53.31;101866.28;5050229;28;1085;-75
2023/06/11 04:11:35;;;;;;;;;;;;;;;17.89;52.98;101878.13;5048976;28;1074;-75
2023/06/11 04:14:22;;;;;;;;;;;;;;;17.83;53.37;101870.09;5046497;28;1102;-73
2023/06/11 04:17:11;;;;;;;;;;;;;;;17.93;52.94;101864.84;5044956;28;1074;-75
2023/06/11 04:19:58;;;;;;;;;;;;;;;17.83;53.30;101872.81;5044983;28;1447;-74
2023/06/11 04:22:44;;;;;;;;;;;;;;;17.79;53.18;101868.88;5046564;28;1284;-73
2023/06/11 04:25:12;;;;;;;;;;;;;;;17.86;52.93;101869.63;5026914;28;1298;-76
2023/06/11 04:27:39;;;;;;;;;;;;;;;17.81;52.96;101870.31;5050393;28;1918;-75
2023/06/11 04:30:14;;;;;;;;;;;;;;;17.77;53.25;101865.56;5033147;28;1182;-73
2023/06/11 04:32:41;;;;;;;;;;;;;;;17.78;52.94;101868.06;5049443;28;1137;-74
2023/06/11 04:35:08;;;;;;;;;;;;;;;17.77;53.06;101869.09;5049743;28;1100;-75
2023/06/11 04:37:38;;;;;;;;;;;;;;;17.75;52.90;101868.50;5048475;28;987;-74
2023/06/11 04:40:09;;;;;;;;;;;;;;;17.80;52.93;101868.66;5049641;28;1284;-73
2023/06/11 04:42:35;;;;;;;;;;;;;;;17.81;52.78;101867.59;5048551;28;1046;-75
2023/06/11 04:45:04;;;;;;;;;;;;;;;17.78;52.92;101867.22;5048942;28;1038;-73
2023/06/11 04:47:32;;;;;;;;;;;;;;;17.34;52.77;101801.31;5048622;28;1910;-74
2023/06/11 04:50:03;;;;;;;;;;;;;;;17.77;52.98;101871.00;5029994;28;1288;-74
2023/06/11 04:52:31;;;;;;;;;;;;;;;17.74;52.99;101868.75;5049563;28;975;-73
2023/06/11 04:54:58;;;;;;;;;;;;;;;17.80;52.77;101873.28;5051360;28;1107;-75
2023/06/11 04:57:25;;;;;;;;;;;;;;;17.72;52.69;101866.25;5051223;28;1300;-74
2023/06/11 04:59:51;;;;;;;;;;;;;;;17.78;52.60;101872.69;5052175;28;1018;-73
2023/06/11 05:02:18;;;;;;;;;;;;;;;17.77;52.66;101868.28;5052846;28;1188;-75
2023/06/11 05:04:49;;;;;;;;;;;;;;;17.74;52.61;101860.56;5053447;28;1030;-74
2023/06/11 05:07:17;;;;;;;;;;;;;;;17.73;52.63;101864.34;5035248;28;1969;-74
2023/06/11 05:09:43;;;;;;;;;;;;;;;17.68;52.74;101865.91;5036685;28;1203;-74
2023/06/11 05:12:10;;;;;;;;;;;;;;;17.78;52.70;101861.78;5052899;28;1073;-74
2023/06/11 05:14:36;;;;;;;;;;;;;;;17.76;52.59;101863.88;5044165;28;1003;-74
2023/06/11 05:17:03;;;;;;;;;;;;;;;17.67;52.72;101863.38;5052548;28;1042;-74
2023/06/11 05:19:29;;;;;;;;;;;;;;;17.74;52.46;101864.13;5053435;28;983;-75
2023/06/11 05:21:56;;;;;;;;;;;;;;;17.74;52.64;101860.56;5052906;28;1062;-75
2023/06/11 05:24:28;;;;;;;;;;;;;;;17.80;52.24;101863.22;5052556;28;908;-75
2023/06/11 05:26:55;;;;;;;;;;;;;;;17.72;52.36;101860.78;5051885;28;1914;-74
2023/06/11 05:29:22;;;;;;;;;;;;;;;17.65;52.65;101865.53;5052542;28;1279;-74
2023/06/11 05:31:48;;;;;;;;;;;;;;;17.64;52.80;101867.41;5051718;28;1214;-73
2023/06/11 05:34:15;;;;;;;;;;;;;;;17.66;52.74;101865.28;5052515;28;947;-74
2023/06/11 05:36:42;;;;;;;;;;;;;;;17.66;52.56;101864.47;5051485;28;1023;-74
2023/06/11 05:39:08;;;;;;;;;;;;;;;17.68;52.54;101865.91;5051230;28;1178;-74
2023/06/11 05:41:35;;;;;;;;;;;;;;;17.74;52.17;101868.75;5053109;28;1027;-74
2023/06/11 05:44:01;;;;;;;;;;;;;;;17.67;52.56;101877.00;5052253;28;1221;-75
2023/06/11 05:46:28;;;;;;;;;;;;;;;17.15;52.57;101797.84;5051196;28;1918;-73
2023/06/11 05:48:55;;;;;;;;;;;;;;;17.62;52.40;101880.44;5034431;28;975;-75
2023/06/11 05:51:21;;;;;;;;;;;;;;;17.61;52.46;101878.78;5033113;28;1591;-74
2023/06/11 05:53:48;;;;;;;;;;;;;;;17.61;52.44;101875.22;5052537;28;983;-74
2023/06/11 05:56:15;;;;;;;;;;;;;;;17.69;52.29;101869.44;5052247;28;995;-74
2023/06/11 05:58:41;;;;;;;;;;;;;;;17.65;52.50;101881.88;5051441;28;1372;-75
2023/06/11 06:01:09;;;;;;;;;;;;;;;17.65;52.21;101871.81;5050607;28;1012;-75
2023/06/11 06:03:35;;;;;;;;;;;;;;;17.60;52.41;101879.03;5051589;28;952;-74
2023/06/11 06:06:02;;;;;;;;;;;;;;;17.66;52.30;101876.19;5034914;28;1977;-75
2023/06/11 06:08:28;;;;;;;;;;;;;;;17.59;52.25;101872.75;5051800;28;1023;-74
2023/06/11 06:10:55;;;;;;;;;;;;;;;17.57;52.24;101869.44;5050798;28;1023;-74
2023/06/11 06:13:21;;;;;;;;;;;;;;;17.65;52.23;101863.63;5051009;28;1014;-74
2023/06/11 06:15:48;;;;;;;;;;;;;;;17.61;52.21;101867.88;5051436;28;975;-74
2023/06/11 06:18:15;;;;;;;;;;;;;;;17.63;52.13;101867.66;5050778;28;983;-75
2023/06/11 06:20:42;;;;;;;;;;;;;;;17.54;52.40;101867.16;5051862;28;1007;-74
2023/06/11 06:23:08;;;;;;;;;;;;;;;17.58;52.22;101871.06;5051664;28;983;-74
2023/06/11 06:25:37;;;;;;;;;;;;;;;17.58;52.16;101860.19;5048431;28;2655;-75
2023/06/11 06:28:04;;;;;;;;;;;;;;;17.51;52.39;101867.66;5051393;28;1975;-73
2023/06/11 06:30:30;;;;;;;;;;;;;;;17.59;52.15;101871.91;5051859;28;1228;-74
2023/06/11 06:32:57;;;;;;;;;;;;;;;17.62;52.33;101875.00;5050112;28;1237;-74
2023/06/11 06:35:23;;;;;;;;;;;;;;;17.65;52.08;101863.63;5051055;28;996;-74
2023/06/11 06:37:50;;;;;;;;;;;;;;;17.56;52.11;101867.78;5050342;28;1026;-74
2023/06/11 06:40:17;;;;;;;;;;;;;;;17.51;52.25;101864.91;5050723;28;975;-74
2023/06/11 06:42:43;;;;;;;;;;;;;;;17.56;52.17;101867.78;5050396;28;1066;-72
2023/06/11 06:45:10;;;;;;;;;;;;;;;17.54;52.01;101856.28;5050946;28;1027;-73
2023/06/11 06:47:36;;;;;;;;;;;;;;;17.57;51.83;101855.81;5050437;28;1906;-73
2023/06/11 06:50:03;;;;;;;;;;;;;;;17.54;52.11;101866.34;5051100;28;1101;-73
2023/06/11 06:52:29;;;;;;;;;;;;;;;17.57;51.84;101858.53;5050783;28;1019;-76
2023/06/11 06:54:56;;;;;;;;;;;;;;;17.62;51.90;101855.13;5049999;28;1054;-75
2023/06/11 06:57:23;;;;;;;;;;;;;;;17.71;51.37;101853.69;5051096;28;1405;-73
2023/06/11 06:59:49;;;;;;;;;;;;;;;17.59;51.79;101856.41;5049641;28;1109;-74
2023/06/11 07:02:16;;;;;;;;;;;;;;;17.53;52.00;101860.06;5051865;28;991;-76
2023/06/11 07:04:42;;;;;;;;;;;;;;;17.59;52.01;101858.28;5050485;28;1029;-74
2023/06/11 07:07:09;;;;;;;;;;;;;;;17.65;51.53;101860.91;5033297;28;1910;-74
2023/06/11 07:09:36;;;;;;;;;;;;;;;17.57;51.65;101872.16;5050334;28;1027;-75
2023/06/11 07:12:05;;;;;;;;;;;;;;;17.76;51.50;101872.88;5049708;28;1110;-73
2023/06/11 07:14:31;;;;;;;;;;;;;;;17.59;51.83;101859.13;5050171;28;1050;-75
2023/06/11 07:16:58;;;;;;;;;;;;;;;17.59;51.82;101861.00;5034498;28;1291;-75
2023/06/11 07:19:25;;;;;;;;;;;;;;;17.58;51.86;101862.91;5027767;28;1320;-75
2023/06/11 07:21:51;;;;;;;;;;;;;;;17.64;51.50;101869.31;5033756;28;1105;-73
2023/06/11 07:24:18;;;;;;;;;;;;;;;17.56;51.86;101865.06;5049636;28;1011;-74
2023/06/11 07:26:44;;;;;;;;;;;;;;;17.53;52.00;101867.38;5033921;28;1918;-74
2023/06/11 07:29:11;;;;;;;;;;;;;;;17.66;51.60;101861.75;5048495;28;1326;-76
2023/06/11 07:31:37;;;;;;;;;;;;;;;17.61;51.65;101856.16;5034251;28;1525;-75
2023/06/11 07:34:04;;;;;;;;;;;;;;;17.53;51.89;101867.38;5049682;28;1007;-74
2023/06/11 07:36:31;;;;;;;;;;;;;;;17.71;51.36;101853.69;5050227;28;1171;-72
2023/06/11 07:38:57;;;;;;;;;;;;;;;17.64;51.53;101852.97;5032589;28;1276;-75
2023/06/11 07:41:24;;;;;;;;;;;;;;;17.95;50.63;101861.91;5051486;28;1321;-74
2023/06/11 07:43:51;;;;;;;;;;;;;;;17.71;51.30;101853.69;5032645;28;1149;-74
2023/06/11 07:46:17;;;;;;;;;;;;;;;17.66;51.38;101857.13;5050564;28;1914;-74
2023/06/11 07:48:44;;;;;;;;;;;;;;;17.64;51.56;101856.50;5050051;28;986;-75
2023/06/11 07:51:11;;;;;;;;;;;;;;;17.65;51.31;101855.47;5040965;28;1016;-75
2023/06/11 07:53:38;;;;;;;;;;;;;;;17.79;51.01;101852.53;5035415;28;985;-74
2023/06/11 07:56:05;;;;;;;;;;;;;;;17.62;51.38;101855.94;5034077;28;1142;-73
2023/06/11 07:58:31;;;;;;;;;;;;;;;17.66;51.46;101856.28;5050028;28;1293;-73
2023/06/11 08:00:58;;;;;;;;;;;;;;;17.86;50.76;101856.00;5031194;28;1321;-73
2023/06/11 08:03:25;;;;;;;;;;;;;;;17.88;50.88;101849.25;5050447;28;1010;-73
2023/06/11 08:05:51;;;;;;;;;;;;;;;17.95;50.60;101856.47;5048868;28;1252;-75
2023/06/11 08:08:18;;;;;;;;;;;;;;;17.84;50.96;101855.38;5049932;28;1914;-74
2023/06/11 08:10:45;;;;;;;;;;;;;;;17.65;51.42;101866.38;5030796;28;1012;-73
2023/06/11 08:13:12;;;;;;;;;;;;;;;17.60;51.72;101857.22;5032231;28;1320;-74
2023/06/11 08:15:38;;;;;;;;;;;;;;;17.76;50.99;101863.88;5049597;28;930;-74
2023/06/11 08:18:05;;;;;;;;;;;;;;;17.82;50.92;101854.78;5048909;28;1252;-76
2023/06/11 08:20:31;;;;;;;;;;;;;;;17.66;51.47;101856.28;5033190;28;1032;-75
2023/06/11 08:22:58;;;;;;;;;;;;;;;17.67;51.46;101856.03;5049476;28;993;-73
2023/06/11 08:25:24;;;;;;;;;;;;;;;17.73;51.11;101861.63;5048819;28;966;-73
2023/06/11 08:27:51;;;;;;;;;;;;;;;17.85;51.12;101857.88;5049762;28;1906;-75
2023/06/11 08:30:17;;;;;;;;;;;;;;;17.75;51.29;101854.03;5050511;28;968;-75
2023/06/11 08:32:44;;;;;;;;;;;;;;;17.65;51.32;101855.47;5038432;28;1173;-73
2023/06/11 08:35:11;;;;;;;;;;;;;;;17.52;52.03;101861.13;5036479;28;1149;-75
2023/06/11 08:37:37;;;;;;;;;;;;;;;17.84;51.21;101852.66;5053490;28;1051;-76
2023/06/11 08:40:05;;;;;;;;;;;;;;;18.13;50.25;101848.16;5053637;28;1400;-75
2023/06/11 08:42:31;;;;;;;;;;;;;;;17.96;50.71;101847.22;5053235;28;1062;-73
2023/06/11 08:44:58;;;;;;;;;;;;;;;17.69;51.46;101853.91;5036850;28;1014;-73
2023/06/11 08:47:24;;;;;;;;;;;;;;;17.63;51.61;101851.31;5053417;28;1966;-74
2023/06/11 08:49:51;;;;;;;;;;;;;;;17.70;51.41;101852.03;5052780;28;1538;-73
2023/06/11 08:52:17;;;;;;;;;;;;;;;17.57;51.77;101857.72;5053207;28;1032;-73
2023/06/11 08:54:44;;;;;;;;;;;;;;;17.46;52.11;101848.44;5035242;28;952;-74
2023/06/11 08:57:11;;;;;;;;;;;;;;;17.44;52.32;101842.38;5035069;28;1294;-73
2023/06/11 08:59:37;;;;;;;;;;;;;;;17.41;52.32;101832.81;5053997;28;1063;-74
2023/06/11 09:02:04;;;;;;;;;;;;;;;17.42;52.32;101845.38;5053580;28;960;-74
2023/06/11 09:04:30;;;;;;;;;;;;;;;17.43;52.41;101838.84;5037734;28;1035;-74
2023/06/11 09:06:57;;;;;;;;;;;;;;;17.42;52.30;101834.47;5053427;28;1977;-73
2023/06/11 09:09:24;;;;;;;;;;;;;;;17.43;52.37;101843.47;5054000;28;1123;-74
2023/06/11 09:11:50;;;;;;;;;;;;;;;17.44;52.43;101831.50;5054274;28;964;-73
2023/06/11 09:14:17;;;;;;;;;;;;;;;17.45;52.29;101831.28;5053970;28;1000;-74
2023/06/11 09:16:43;;;;;;;;;;;;;;;17.45;52.52;101827.72;5037379;28;1052;-75
2023/06/11 09:19:10;;;;;;;;;;;;;;;17.46;52.33;101821.22;5053223;28;1001;-75
2023/06/11 09:21:37;;;;;;;;;;;;;;;17.46;52.37;101819.31;5057344;28;1008;-75
2023/06/11 09:24:03;;;;;;;;;;;;;;;17.47;52.33;101823.72;5054297;28;1023;-73
2023/06/11 09:26:30;;;;;;;;;;;;;;;17.47;52.33;101817.41;5053363;28;1153;-75
2023/06/11 09:28:56;;;;;;;;;;;;;;;17.46;52.37;101824.75;5052646;28;1989;-74
2023/06/11 09:31:23;;;;;;;;;;;;;;;17.47;52.33;101812.81;5036902;28;1211;-74
2023/06/11 09:33:49;;;;;;;;;;;;;;;17.49;52.31;101824.28;5037475;28;1303;-74
2023/06/11 09:36:16;;;;;;;;;;;;;;;17.49;52.22;101815.28;5066890;28;1046;-73
2023/06/11 09:38:43;;;;;;;;;;;;;;;17.49;52.34;101810.66;5036343;28;1176;-73
2023/06/11 09:41:09;;;;;;;;;;;;;;;17.50;52.46;101816.97;5053875;28;1031;-73
2023/06/11 09:43:36;;;;;;;;;;;;;;;17.51;52.27;101813.16;5035679;28;1047;-73
2023/06/11 09:46:02;;;;;;;;;;;;;;;17.52;52.43;101803.91;5051785;28;1167;-74
2023/06/11 09:48:29;;;;;;;;;;;;;;;17.53;52.16;101821.09;5052691;28;1973;-74
2023/06/11 09:50:55;;;;;;;;;;;;;;;17.52;52.43;101817.53;5036150;28;1225;-73
2023/06/11 09:53:22;;;;;;;;;;;;;;;17.54;52.31;101809.97;5051740;28;1054;-73
2023/06/11 09:55:50;;;;;;;;;;;;;;;17.54;52.31;101809.16;5051496;28;1222;-75
2023/06/11 09:58:16;;;;;;;;;;;;;;;17.54;52.53;101804.53;5051171;28;1271;-74
2023/06/11 10:00:43;;;;;;;;;;;;;;;17.55;52.37;101794.47;5051379;28;1066;-75
2023/06/11 10:03:09;;;;;;;;;;;;;;;17.55;52.43;101805.34;5052603;28;960;-76
2023/06/11 10:05:36;;;;;;;;;;;;;;;17.56;52.36;101796.97;5034892;28;1086;-74
2023/06/11 10:08:03;;;;;;;;;;;;;;;17.57;52.38;101793.16;5051818;28;1975;-73
2023/06/11 10:10:30;;;;;;;;;;;;;;;17.57;52.55;101795.88;5051066;28;1047;-73
2023/06/11 10:12:56;;;;;;;;;;;;;;;17.58;52.46;101794.81;5051936;28;1019;-75
2023/06/11 10:15:22;;;;;;;;;;;;;;;17.57;52.48;101790.44;5051794;28;1012;-75
2023/06/11 10:17:49;;;;;;;;;;;;;;;17.58;52.26;101786.63;5032749;28;1062;-73
2023/06/11 10:20:16;;;;;;;;;;;;;;;17.59;52.57;101788.31;5034274;28;1251;-74
2023/06/11 10:22:42;;;;;;;;;;;;;;;17.60;52.59;101783.69;5034385;28;1263;-73
2023/06/11 10:25:09;;;;;;;;;;;;;;;17.61;52.41;101785.34;5033198;28;1180;-74
2023/06/11 10:27:35;;;;;;;;;;;;;;;17.61;52.54;101786.16;5033809;28;1907;-76
2023/06/11 10:30:02;;;;;;;;;;;;;;;17.61;52.58;101786.16;5035207;28;1019;-75
2023/06/11 10:32:28;;;;;;;;;;;;;;;17.61;52.57;101778.00;5032039;28;1303;-73
2023/06/11 10:34:55;;;;;;;;;;;;;;;17.62;52.62;101782.38;5051473;28;992;-74
2023/06/11 10:37:22;;;;;;;;;;;;;;;17.62;52.42;101782.38;5034692;28;1434;-75
2023/06/11 10:39:48;;;;;;;;;;;;;;;17.64;52.49;101785.69;5034594;28;1318;-75
2023/06/11 10:42:15;;;;;;;;;;;;;;;17.64;52.68;101782.97;5050739;28;1075;-74
2023/06/11 10:44:41;;;;;;;;;;;;;;;17.65;52.51;101792.81;5050423;28;1019;-74
2023/06/11 10:47:08;;;;;;;;;;;;;;;17.66;52.65;101778.13;5051064;28;1910;-72
2023/06/11 10:49:35;;;;;;;;;;;;;;;17.67;52.81;101779.75;5050723;28;960;-76
2023/06/11 10:52:01;;;;;;;;;;;;;;;17.68;52.76;101783.34;5033459;28;934;-75
2023/06/11 10:54:28;;;;;;;;;;;;;;;17.69;52.51;101774.09;5049347;28;1006;-74
2023/06/11 10:56:55;;;;;;;;;;;;;;;17.69;52.65;101774.09;5034394;28;1337;-74
2023/06/11 10:59:21;;;;;;;;;;;;;;;17.70;52.66;101782.00;5049854;28;1039;-75
2023/06/11 11:01:48;;;;;;;;;;;;;;;17.70;52.85;101773.00;5050862;28;972;-74
2023/06/11 11:04:14;;;;;;;;;;;;;;;17.70;52.58;101782.00;5050596;28;957;-74
2023/06/11 11:06:43;;;;;;;;;;;;;;;17.73;52.84;101777.16;5050788;28;1018;-74
2023/06/11 11:09:09;;;;;;;;;;;;;;;17.71;52.70;101774.69;5050162;28;1910;-74
2023/06/11 11:11:36;;;;;;;;;;;;;;;17.71;52.41;101766.50;5034108;28;1375;-74
2023/06/11 11:14:03;;;;;;;;;;;;;;;17.71;52.57;101774.69;5049644;28;1023;-74
2023/06/11 11:16:30;;;;;;;;;;;;;;;17.74;52.54;101768.75;5050402;28;1081;-74
2023/06/11 11:18:56;;;;;;;;;;;;;;;17.74;52.93;101766.03;5050231;28;942;-74
2023/06/11 11:21:23;;;;;;;;;;;;;;;17.75;52.70;101770.41;5033502;28;1026;-74
2023/06/11 11:23:49;;;;;;;;;;;;;;;17.77;52.93;101764.75;5050988;28;1006;-74
2023/06/11 11:26:16;;;;;;;;;;;;;;;17.78;52.88;101763.69;5031489;28;1264;-75
2023/06/11 11:28:43;;;;;;;;;;;;;;;17.79;52.96;101763.44;5033070;28;1914;-74
2023/06/11 11:31:10;;;;;;;;;;;;;;;17.80;52.88;101756.94;5049317;28;1043;-74
2023/06/11 11:33:37;;;;;;;;;;;;;;;17.80;52.87;101759.66;5049578;28;1015;-74
2023/06/11 11:36:03;;;;;;;;;;;;;;;17.83;52.86;101752.91;5033673;28;1001;-74
2023/06/11 11:38:30;;;;;;;;;;;;;;;17.84;52.90;101751.84;5049024;28;1089;-75
2023/06/11 11:40:56;;;;;;;;;;;;;;;17.84;52.97;101744.47;5050507;28;958;-75
2023/06/11 11:43:23;;;;;;;;;;;;;;;17.85;53.16;101743.44;5049915;28;1077;-74
2023/06/11 11:45:49;;;;;;;;;;;;;;;17.86;52.89;101747.81;5050570;28;1070;-75
2023/06/11 11:48:16;;;;;;;;;;;;;;;17.87;53.27;101754.09;5049949;28;1971;-75
2023/06/11 11:50:44;;;;;;;;;;;;;;;17.88;53.11;101740.22;5031839;28;1034;-74
2023/06/11 11:53:13;;;;;;;;;;;;;;;17.87;53.09;101744.00;5032513;28;981;-75
2023/06/11 11:55:40;;;;;;;;;;;;;;;17.88;53.12;101750.28;5031515;28;1086;-75
2023/06/11 11:58:06;;;;;;;;;;;;;;;17.89;53.08;101746.50;5050518;28;1391;-75
2023/06/11 12:00:33;;;;;;;;;;;;;;;17.88;53.03;101744.81;5049500;28;1157;-75
2023/06/11 12:03:00;;;;;;;;;;;;;;;17.88;53.08;101732.06;5049742;28;1161;-75
2023/06/11 12:05:27;;;;;;;;;;;;;;;17.89;52.65;101733.69;5047906;28;1058;-74
2023/06/11 12:07:53;;;;;;;;;;;;;;;17.89;52.51;101735.59;5032728;28;1902;-74
2023/06/11 12:10:21;;;;;;;;;;;;;;;17.92;52.95;101741.41;5033481;28;1328;-74
2023/06/11 12:12:47;;;;;;;;;;;;;;;17.94;53.11;101738.41;5049271;28;1062;-74
2023/06/11 12:15:14;;;;;;;;;;;;;;;17.96;53.16;101739.00;5031245;28;1381;-74
2023/06/11 12:17:40;;;;;;;;;;;;;;;17.97;53.21;101737.97;5049430;28;1035;-74
2023/06/11 12:20:07;;;;;;;;;;;;;;;17.96;52.78;101735.47;5050151;28;985;-74
2023/06/11 12:22:33;;;;;;;;;;;;;;;17.96;52.38;101740.91;5049148;28;1052;-74
2023/06/11 12:25:00;;;;;;;;;;;;;;;17.95;52.04;101740.09;5049677;28;1013;-75
2023/06/11 12:27:26;;;;;;;;;;;;;;;17.99;52.26;101741.25;5049629;28;952;-74
2023/06/11 12:29:54;;;;;;;;;;;;;;;18.00;52.64;101745.66;5032212;28;1040;-75
2023/06/11 12:32:21;;;;;;;;;;;;;;;18.04;52.83;101743.28;5032634;28;1321;-74
2023/06/11 12:34:47;;;;;;;;;;;;;;;18.03;52.90;101738.88;5049345;28;1137;-74
2023/06/11 12:37:14;;;;;;;;;;;;;;;18.05;52.99;101736.75;5040093;28;1045;-74
2023/06/11 12:39:43;;;;;;;;;;;;;;;18.08;53.14;101741.72;5032378;28;1102;-74
2023/06/11 12:42:10;;;;;;;;;;;;;;;18.10;53.31;101736.84;5049785;28;1016;-74
2023/06/11 12:44:36;;;;;;;;;;;;;;;18.10;53.14;101728.69;5048219;28;963;-74
2023/06/11 12:47:03;;;;;;;;;;;;;;;18.09;53.25;101729.75;5049277;28;1054;-74